sensor_id;sensor_type;location;lat;lon;timestamp;P1;durP1;ratioP1;P2;durP2;ratioP2
46290;SDS011;32023;44.444;26.006;2022-09-17T00:01:18;11.00;;;3.00;;
46290;SDS011;32023;44.444;26.006;2022-09-17T00:03:49;12.32;;;3.35;;
46290;SDS011;32023;44.444;26.006;2022-09-17T00:06:19;4.97;;;2.15;;
46290;SDS011;32023;44.444;26.006;2022-09-17T00:08:47;9.43;;;2.05;;
46290;SDS011;32023;44.444;26.006;2022-09-17T00:11:15;5.55;;;1.92;;
46290;SDS011;32023;44.444;26.006;2022-09-17T00:13:52;4.95;;;1.65;;
46290;SDS011;32023;44.444;26.006;2022-09-17T00:16:21;9.48;;;2.20;;
46290;SDS011;32023;44.444;26.006;2022-09-17T00:18:56;9.15;;;2.15;;
46290;SDS011;32023;44.444;26.006;2022-09-17T00:21:24;7.55;;;2.10;;
46290;SDS011;32023;44.444;26.006;2022-09-17T00:23:52;7.50;;;1.80;;
46290;SDS011;32023;44.444;26.006;2022-09-17T00:26:20;4.15;;;1.50;;
46290;SDS011;32023;44.444;26.006;2022-09-17T00:28:50;6.13;;;1.67;;
46290;SDS011;32023;44.444;26.006;2022-09-17T00:31:18;6.90;;;2.00;;
46290;SDS011;32023;44.444;26.006;2022-09-17T00:33:45;7.15;;;2.00;;
46290;SDS011;32023;44.444;26.006;2022-09-17T00:36:12;14.25;;;2.00;;
46290;SDS011;32023;44.444;26.006;2022-09-17T00:38:38;2.67;;;1.42;;
46290;SDS011;32023;44.444;26.006;2022-09-17T00:41:05;6.93;;;1.40;;
46290;SDS011;32023;44.444;26.006;2022-09-17T00:43:42;8.90;;;1.88;;
46290;SDS011;32023;44.444;26.006;2022-09-17T00:46:20;4.85;;;1.50;;
46290;SDS011;32023;44.444;26.006;2022-09-17T00:49:16;10.00;;;2.00;;
46290;SDS011;32023;44.444;26.006;2022-09-17T00:51:54;4.25;;;1.48;;
46290;SDS011;32023;44.444;26.006;2022-09-17T00:54:25;4.75;;;1.60;;
46290;SDS011;32023;44.444;26.006;2022-09-17T00:56:52;9.05;;;1.83;;
46290;SDS011;32023;44.444;26.006;2022-09-17T00:59:19;4.80;;;1.75;;
46290;SDS011;32023;44.444;26.006;2022-09-17T01:01:47;5.90;;;1.30;;
46290;SDS011;32023;44.444;26.006;2022-09-17T01:04:17;10.40;;;1.95;;
46290;SDS011;32023;44.444;26.006;2022-09-17T01:20:42;7.45;;;1.73;;
46290;SDS011;32023;44.444;26.006;2022-09-17T01:37:13;3.78;;;1.60;;
46290;SDS011;32023;44.444;26.006;2022-09-17T01:42:35;3.60;;;1.37;;
46290;SDS011;32023;44.444;26.006;2022-09-17T01:45:13;7.40;;;1.77;;
46290;SDS011;32023;44.444;26.006;2022-09-17T01:50:37;4.70;;;1.25;;
46290;SDS011;32023;44.444;26.006;2022-09-17T01:53:10;6.80;;;1.17;;
46290;SDS011;32023;44.444;26.006;2022-09-17T01:55:38;3.40;;;1.60;;
46290;SDS011;32023;44.444;26.006;2022-09-17T01:58:30;3.72;;;1.42;;
46290;SDS011;32023;44.444;26.006;2022-09-17T02:01:01;6.53;;;1.17;;
46290;SDS011;32023;44.444;26.006;2022-09-17T02:03:40;6.80;;;1.58;;
46290;SDS011;32023;44.444;26.006;2022-09-17T02:06:16;4.50;;;1.38;;
46290;SDS011;32023;44.444;26.006;2022-09-17T02:08:48;4.50;;;1.15;;
46290;SDS011;32023;44.444;26.006;2022-09-17T02:11:22;3.63;;;1.00;;
46290;SDS011;32023;44.444;26.006;2022-09-17T02:16:22;4.90;;;1.50;;
46290;SDS011;32023;44.444;26.006;2022-09-17T02:18:55;4.60;;;1.00;;
46290;SDS011;32023;44.444;26.006;2022-09-17T02:24:24;6.78;;;1.10;;
46290;SDS011;32023;44.444;26.006;2022-09-17T02:29:31;5.00;;;0.95;;
46290;SDS011;32023;44.444;26.006;2022-09-17T02:32:02;5.55;;;1.00;;
46290;SDS011;32023;44.444;26.006;2022-09-17T02:34:29;3.22;;;0.90;;
46290;SDS011;32023;44.444;26.006;2022-09-17T02:36:56;2.63;;;1.08;;
46290;SDS011;32023;44.444;26.006;2022-09-17T02:39:24;6.68;;;1.48;;
46290;SDS011;32023;44.444;26.006;2022-09-17T02:45:00;5.78;;;1.00;;
46290;SDS011;32023;44.444;26.006;2022-09-17T02:47:56;4.00;;;0.95;;
46290;SDS011;32023;44.444;26.006;2022-09-17T02:53:53;2.58;;;1.13;;
46290;SDS011;32023;44.444;26.006;2022-09-17T02:56:45;1.80;;;0.90;;
46290;SDS011;32023;44.444;26.006;2022-09-17T03:05:05;3.33;;;1.05;;
46290;SDS011;32023;44.444;26.006;2022-09-17T03:07:33;5.32;;;1.00;;
46290;SDS011;32023;44.444;26.006;2022-09-17T03:10:03;2.28;;;1.60;;
46290;SDS011;32023;44.444;26.006;2022-09-17T03:12:30;5.30;;;1.05;;
46290;SDS011;32023;44.444;26.006;2022-09-17T03:14:57;4.53;;;1.20;;
46290;SDS011;32023;44.444;26.006;2022-09-17T03:17:23;11.15;;;1.33;;
46290;SDS011;32023;44.444;26.006;2022-09-17T03:19:49;8.65;;;1.40;;
46290;SDS011;32023;44.444;26.006;2022-09-17T03:22:18;6.50;;;1.67;;
46290;SDS011;32023;44.444;26.006;2022-09-17T03:24:47;3.20;;;1.10;;
46290;SDS011;32023;44.444;26.006;2022-09-17T03:27:13;5.82;;;1.25;;
46290;SDS011;32023;44.444;26.006;2022-09-17T03:29:40;5.80;;;1.08;;
46290;SDS011;32023;44.444;26.006;2022-09-17T03:32:07;5.55;;;1.27;;
46290;SDS011;32023;44.444;26.006;2022-09-17T03:34:34;4.80;;;1.40;;
46290;SDS011;32023;44.444;26.006;2022-09-17T03:37:00;2.58;;;1.23;;
46290;SDS011;32023;44.444;26.006;2022-09-17T03:39:27;4.57;;;1.27;;
46290;SDS011;32023;44.444;26.006;2022-09-17T03:41:53;4.78;;;1.08;;
46290;SDS011;32023;44.444;26.006;2022-09-17T03:44:20;2.75;;;1.10;;
46290;SDS011;32023;44.444;26.006;2022-09-17T03:46:49;4.93;;;1.40;;
46290;SDS011;32023;44.444;26.006;2022-09-17T03:49:24;8.73;;;1.60;;
46290;SDS011;32023;44.444;26.006;2022-09-17T03:51:52;6.38;;;1.20;;
46290;SDS011;32023;44.444;26.006;2022-09-17T03:54:19;6.15;;;1.42;;
46290;SDS011;32023;44.444;26.006;2022-09-17T03:56:48;7.65;;;1.50;;
46290;SDS011;32023;44.444;26.006;2022-09-17T04:02:00;7.63;;;1.58;;
46290;SDS011;32023;44.444;26.006;2022-09-17T04:04:27;10.35;;;1.90;;
46290;SDS011;32023;44.444;26.006;2022-09-17T04:06:53;5.28;;;1.73;;
46290;SDS011;32023;44.444;26.006;2022-09-17T04:09:20;9.63;;;1.67;;
46290;SDS011;32023;44.444;26.006;2022-09-17T04:11:48;3.92;;;1.38;;
46290;SDS011;32023;44.444;26.006;2022-09-17T04:14:15;5.45;;;1.40;;
46290;SDS011;32023;44.444;26.006;2022-09-17T04:16:41;9.32;;;1.50;;
46290;SDS011;32023;44.444;26.006;2022-09-17T04:19:07;7.53;;;1.70;;
46290;SDS011;32023;44.444;26.006;2022-09-17T04:21:34;6.50;;;1.80;;
46290;SDS011;32023;44.444;26.006;2022-09-17T04:24:00;7.75;;;2.05;;
46290;SDS011;32023;44.444;26.006;2022-09-17T04:26:27;11.45;;;2.28;;
46290;SDS011;32023;44.444;26.006;2022-09-17T04:28:53;11.20;;;1.98;;
46290;SDS011;32023;44.444;26.006;2022-09-17T04:31:20;5.25;;;2.00;;
46290;SDS011;32023;44.444;26.006;2022-09-17T04:33:52;4.25;;;1.77;;
46290;SDS011;32023;44.444;26.006;2022-09-17T04:36:18;10.63;;;2.72;;
46290;SDS011;32023;44.444;26.006;2022-09-17T04:38:48;18.60;;;3.05;;
46290;SDS011;32023;44.444;26.006;2022-09-17T04:41:14;9.40;;;2.08;;
46290;SDS011;32023;44.444;26.006;2022-09-17T04:43:41;7.25;;;2.08;;
46290;SDS011;32023;44.444;26.006;2022-09-17T04:46:07;10.10;;;2.80;;
46290;SDS011;32023;44.444;26.006;2022-09-17T04:48:35;5.95;;;2.28;;
46290;SDS011;32023;44.444;26.006;2022-09-17T04:51:03;8.43;;;2.17;;
46290;SDS011;32023;44.444;26.006;2022-09-17T04:53:29;10.27;;;1.92;;
46290;SDS011;32023;44.444;26.006;2022-09-17T04:55:56;10.55;;;2.40;;
46290;SDS011;32023;44.444;26.006;2022-09-17T04:58:22;6.35;;;1.88;;
46290;SDS011;32023;44.444;26.006;2022-09-17T05:00:49;7.82;;;2.13;;
46290;SDS011;32023;44.444;26.006;2022-09-17T05:03:15;8.48;;;1.92;;
46290;SDS011;32023;44.444;26.006;2022-09-17T05:05:47;9.95;;;1.60;;
46290;SDS011;32023;44.444;26.006;2022-09-17T05:08:13;10.27;;;2.45;;
46290;SDS011;32023;44.444;26.006;2022-09-17T05:10:40;24.70;;;2.80;;
46290;SDS011;32023;44.444;26.006;2022-09-17T05:13:06;18.75;;;2.80;;
46290;SDS011;32023;44.444;26.006;2022-09-17T05:15:32;12.00;;;2.25;;
46290;SDS011;32023;44.444;26.006;2022-09-17T05:17:59;7.03;;;2.20;;
46290;SDS011;32023;44.444;26.006;2022-09-17T05:20:29;15.90;;;2.33;;
46290;SDS011;32023;44.444;26.006;2022-09-17T05:22:55;12.07;;;2.63;;
46290;SDS011;32023;44.444;26.006;2022-09-17T05:25:22;9.02;;;2.40;;
46290;SDS011;32023;44.444;26.006;2022-09-17T05:27:49;17.92;;;3.08;;
46290;SDS011;32023;44.444;26.006;2022-09-17T05:30:19;6.55;;;1.75;;
46290;SDS011;32023;44.444;26.006;2022-09-17T05:32:46;10.00;;;2.05;;
46290;SDS011;32023;44.444;26.006;2022-09-17T05:35:13;7.10;;;2.33;;
46290;SDS011;32023;44.444;26.006;2022-09-17T05:37:46;6.95;;;1.85;;
46290;SDS011;32023;44.444;26.006;2022-09-17T05:40:12;9.83;;;2.07;;
46290;SDS011;32023;44.444;26.006;2022-09-17T05:42:41;7.53;;;1.63;;
46290;SDS011;32023;44.444;26.006;2022-09-17T05:45:08;4.53;;;2.17;;
46290;SDS011;32023;44.444;26.006;2022-09-17T05:47:37;5.53;;;1.80;;
46290;SDS011;32023;44.444;26.006;2022-09-17T05:50:03;7.30;;;2.00;;
46290;SDS011;32023;44.444;26.006;2022-09-17T05:52:30;7.70;;;2.35;;
46290;SDS011;32023;44.444;26.006;2022-09-17T05:54:56;4.05;;;1.27;;
46290;SDS011;32023;44.444;26.006;2022-09-17T05:57:23;7.88;;;1.83;;
46290;SDS011;32023;44.444;26.006;2022-09-17T05:59:49;4.88;;;2.33;;
46290;SDS011;32023;44.444;26.006;2022-09-17T06:02:15;7.03;;;1.73;;
46290;SDS011;32023;44.444;26.006;2022-09-17T06:04:42;9.40;;;2.47;;
46290;SDS011;32023;44.444;26.006;2022-09-17T06:07:11;9.07;;;2.22;;
46290;SDS011;32023;44.444;26.006;2022-09-17T06:09:38;9.02;;;2.63;;
46290;SDS011;32023;44.444;26.006;2022-09-17T06:12:05;8.23;;;2.20;;
46290;SDS011;32023;44.444;26.006;2022-09-17T06:14:31;12.85;;;3.03;;
46290;SDS011;32023;44.444;26.006;2022-09-17T06:17:04;7.18;;;2.50;;
46290;SDS011;32023;44.444;26.006;2022-09-17T06:19:30;6.10;;;1.98;;
46290;SDS011;32023;44.444;26.006;2022-09-17T06:21:57;9.48;;;2.60;;
46290;SDS011;32023;44.444;26.006;2022-09-17T06:24:24;10.00;;;2.42;;
46290;SDS011;32023;44.444;26.006;2022-09-17T06:26:50;9.13;;;2.00;;
46290;SDS011;32023;44.444;26.006;2022-09-17T06:29:17;7.88;;;2.40;;
46290;SDS011;32023;44.444;26.006;2022-09-17T06:31:44;13.82;;;2.20;;
46290;SDS011;32023;44.444;26.006;2022-09-17T06:34:12;4.38;;;2.53;;
46290;SDS011;32023;44.444;26.006;2022-09-17T06:36:38;12.50;;;2.70;;
46290;SDS011;32023;44.444;26.006;2022-09-17T06:39:04;13.50;;;2.97;;
46290;SDS011;32023;44.444;26.006;2022-09-17T06:41:31;9.48;;;3.38;;
46290;SDS011;32023;44.444;26.006;2022-09-17T06:43:57;9.80;;;2.97;;
46290;SDS011;32023;44.444;26.006;2022-09-17T06:46:24;5.68;;;3.00;;
46290;SDS011;32023;44.444;26.006;2022-09-17T06:48:50;7.93;;;2.65;;
46290;SDS011;32023;44.444;26.006;2022-09-17T06:51:17;10.23;;;2.75;;
46290;SDS011;32023;44.444;26.006;2022-09-17T06:53:43;11.45;;;2.83;;
46290;SDS011;32023;44.444;26.006;2022-09-17T06:56:09;10.52;;;2.90;;
46290;SDS011;32023;44.444;26.006;2022-09-17T06:58:36;11.10;;;2.97;;
46290;SDS011;32023;44.444;26.006;2022-09-17T07:01:05;8.18;;;2.20;;
46290;SDS011;32023;44.444;26.006;2022-09-17T07:03:32;9.05;;;2.17;;
46290;SDS011;32023;44.444;26.006;2022-09-17T07:05:58;10.40;;;3.00;;
46290;SDS011;32023;44.444;26.006;2022-09-17T07:08:25;8.30;;;3.08;;
46290;SDS011;32023;44.444;26.006;2022-09-17T07:10:55;10.02;;;3.65;;
46290;SDS011;32023;44.444;26.006;2022-09-17T07:13:22;12.80;;;3.10;;
46290;SDS011;32023;44.444;26.006;2022-09-17T07:15:52;13.15;;;3.88;;
46290;SDS011;32023;44.444;26.006;2022-09-17T07:18:20;14.65;;;3.33;;
46290;SDS011;32023;44.444;26.006;2022-09-17T07:20:57;14.10;;;3.90;;
46290;SDS011;32023;44.444;26.006;2022-09-17T07:23:26;10.05;;;3.40;;
46290;SDS011;32023;44.444;26.006;2022-09-17T07:25:54;9.90;;;3.15;;
46290;SDS011;32023;44.444;26.006;2022-09-17T07:28:22;14.90;;;3.30;;
46290;SDS011;32023;44.444;26.006;2022-09-17T07:30:50;9.15;;;3.60;;
46290;SDS011;32023;44.444;26.006;2022-09-17T07:33:18;11.73;;;2.53;;
46290;SDS011;32023;44.444;26.006;2022-09-17T07:35:54;7.40;;;2.50;;
46290;SDS011;32023;44.444;26.006;2022-09-17T07:38:22;9.60;;;2.70;;
46290;SDS011;32023;44.444;26.006;2022-09-17T07:40:59;11.75;;;2.45;;
46290;SDS011;32023;44.444;26.006;2022-09-17T07:43:39;5.45;;;2.00;;
46290;SDS011;32023;44.444;26.006;2022-09-17T07:46:07;11.73;;;2.40;;
46290;SDS011;32023;44.444;26.006;2022-09-17T07:48:38;10.73;;;2.28;;
46290;SDS011;32023;44.444;26.006;2022-09-17T07:51:04;7.63;;;2.33;;
46290;SDS011;32023;44.444;26.006;2022-09-17T07:53:31;9.65;;;2.53;;
46290;SDS011;32023;44.444;26.006;2022-09-17T07:55:58;14.55;;;2.60;;
46290;SDS011;32023;44.444;26.006;2022-09-17T07:58:29;11.95;;;2.90;;
46290;SDS011;32023;44.444;26.006;2022-09-17T08:01:01;10.07;;;2.65;;
46290;SDS011;32023;44.444;26.006;2022-09-17T08:03:28;8.85;;;3.03;;
46290;SDS011;32023;44.444;26.006;2022-09-17T08:06:02;7.70;;;2.50;;
46290;SDS011;32023;44.444;26.006;2022-09-17T08:08:31;6.70;;;2.58;;
46290;SDS011;32023;44.444;26.006;2022-09-17T08:11:12;6.53;;;2.20;;
46290;SDS011;32023;44.444;26.006;2022-09-17T08:13:41;8.80;;;2.40;;
46290;SDS011;32023;44.444;26.006;2022-09-17T08:16:09;5.45;;;2.20;;
46290;SDS011;32023;44.444;26.006;2022-09-17T08:18:37;5.95;;;2.80;;
46290;SDS011;32023;44.444;26.006;2022-09-17T08:21:04;6.90;;;2.70;;
46290;SDS011;32023;44.444;26.006;2022-09-17T08:23:33;6.45;;;1.92;;
46290;SDS011;32023;44.444;26.006;2022-09-17T08:26:01;12.35;;;2.45;;
46290;SDS011;32023;44.444;26.006;2022-09-17T08:28:28;10.68;;;2.92;;
46290;SDS011;32023;44.444;26.006;2022-09-17T08:31:06;11.93;;;2.72;;
46290;SDS011;32023;44.444;26.006;2022-09-17T08:33:34;14.07;;;3.00;;
46290;SDS011;32023;44.444;26.006;2022-09-17T08:36:01;9.30;;;2.83;;
46290;SDS011;32023;44.444;26.006;2022-09-17T08:38:29;9.63;;;3.40;;
46290;SDS011;32023;44.444;26.006;2022-09-17T08:41:01;11.38;;;3.53;;
46290;SDS011;32023;44.444;26.006;2022-09-17T08:43:40;10.40;;;3.22;;
46290;SDS011;32023;44.444;26.006;2022-09-17T09:00:11;17.25;;;3.83;;
46290;SDS011;32023;44.444;26.006;2022-09-17T09:02:44;13.07;;;3.20;;
46290;SDS011;32023;44.444;26.006;2022-09-17T09:07:55;8.27;;;3.05;;
46290;SDS011;32023;44.444;26.006;2022-09-17T09:10:43;13.73;;;3.42;;
46290;SDS011;32023;44.444;26.006;2022-09-17T09:13:15;17.05;;;3.60;;
46290;SDS011;32023;44.444;26.006;2022-09-17T09:15:48;12.15;;;3.05;;
46290;SDS011;32023;44.444;26.006;2022-09-17T09:18:28;10.23;;;2.75;;
46290;SDS011;32023;44.444;26.006;2022-09-17T09:23:50;9.30;;;2.92;;
46290;SDS011;32023;44.444;26.006;2022-09-17T09:32:19;12.35;;;3.88;;
46290;SDS011;32023;44.444;26.006;2022-09-17T09:35:17;10.57;;;3.28;;
46290;SDS011;32023;44.444;26.006;2022-09-17T09:40:35;10.68;;;3.15;;
46290;SDS011;32023;44.444;26.006;2022-09-17T09:43:13;7.28;;;2.97;;
46290;SDS011;32023;44.444;26.006;2022-09-17T09:45:45;13.98;;;3.20;;
46290;SDS011;32023;44.444;26.006;2022-09-17T09:54:01;11.63;;;3.17;;
46290;SDS011;32023;44.444;26.006;2022-09-17T09:59:17;6.47;;;2.40;;
46290;SDS011;32023;44.444;26.006;2022-09-17T10:01:44;15.65;;;2.53;;
46290;SDS011;32023;44.444;26.006;2022-09-17T10:04:15;7.25;;;2.65;;
46290;SDS011;32023;44.444;26.006;2022-09-17T10:06:44;6.88;;;2.25;;
46290;SDS011;32023;44.444;26.006;2022-09-17T10:09:12;6.68;;;2.08;;
46290;SDS011;32023;44.444;26.006;2022-09-17T10:11:58;7.47;;;2.60;;
46290;SDS011;32023;44.444;26.006;2022-09-17T10:14:31;7.10;;;2.03;;
46290;SDS011;32023;44.444;26.006;2022-09-17T10:24:59;8.13;;;2.30;;
46290;SDS011;32023;44.444;26.006;2022-09-17T10:27:27;10.82;;;1.98;;
46290;SDS011;32023;44.444;26.006;2022-09-17T10:30:02;7.07;;;2.63;;
46290;SDS011;32023;44.444;26.006;2022-09-17T10:32:40;8.20;;;2.10;;
46290;SDS011;32023;44.444;26.006;2022-09-17T10:45:44;4.65;;;2.25;;
46290;SDS011;32023;44.444;26.006;2022-09-17T10:48:21;8.73;;;2.88;;
46290;SDS011;32023;44.444;26.006;2022-09-17T10:50:56;5.40;;;2.47;;
46290;SDS011;32023;44.444;26.006;2022-09-17T10:53:32;7.57;;;2.55;;
46290;SDS011;32023;44.444;26.006;2022-09-17T11:19:05;9.10;;;2.72;;
46290;SDS011;32023;44.444;26.006;2022-09-17T11:21:44;17.08;;;2.40;;
46290;SDS011;32023;44.444;26.006;2022-09-17T11:27:07;6.82;;;2.55;;
46290;SDS011;32023;44.444;26.006;2022-09-17T11:35:11;6.15;;;2.25;;
46290;SDS011;32023;44.444;26.006;2022-09-17T11:40:16;6.60;;;2.88;;
46290;SDS011;32023;44.444;26.006;2022-09-17T11:45:48;4.93;;;1.85;;
46290;SDS011;32023;44.444;26.006;2022-09-17T11:48:49;5.63;;;1.92;;
46290;SDS011;32023;44.444;26.006;2022-09-17T11:51:29;6.28;;;1.70;;
46290;SDS011;32023;44.444;26.006;2022-09-17T11:56:37;3.50;;;2.05;;
46290;SDS011;32023;44.444;26.006;2022-09-17T11:59:13;10.27;;;1.90;;
46290;SDS011;32023;44.444;26.006;2022-09-17T12:01:57;8.82;;;2.22;;
46290;SDS011;32023;44.444;26.006;2022-09-17T12:07:33;5.90;;;2.58;;
46290;SDS011;32023;44.444;26.006;2022-09-17T12:13:22;5.47;;;1.92;;
46290;SDS011;32023;44.444;26.006;2022-09-17T12:18:44;5.53;;;2.10;;
46290;SDS011;32023;44.444;26.006;2022-09-17T12:21:44;4.65;;;2.13;;
46290;SDS011;32023;44.444;26.006;2022-09-17T12:24:28;6.22;;;1.67;;
46290;SDS011;32023;44.444;26.006;2022-09-17T12:29:44;6.70;;;2.33;;
46290;SDS011;32023;44.444;26.006;2022-09-17T13:00:07;12.32;;;2.95;;
46290;SDS011;32023;44.444;26.006;2022-09-17T13:14:08;7.72;;;3.03;;
46290;SDS011;32023;44.444;26.006;2022-09-17T13:16:42;5.00;;;2.40;;
46290;SDS011;32023;44.444;26.006;2022-09-17T13:24:41;6.45;;;2.50;;
46290;SDS011;32023;44.444;26.006;2022-09-17T13:27:21;6.32;;;2.65;;
46290;SDS011;32023;44.444;26.006;2022-09-17T13:37:35;7.82;;;2.25;;
46290;SDS011;32023;44.444;26.006;2022-09-17T13:43:16;5.65;;;2.03;;
46290;SDS011;32023;44.444;26.006;2022-09-17T13:48:28;12.30;;;2.28;;
46290;SDS011;32023;44.444;26.006;2022-09-17T13:54:17;3.38;;;1.75;;
46290;SDS011;32023;44.444;26.006;2022-09-17T13:56:47;5.90;;;2.22;;
46290;SDS011;32023;44.444;26.006;2022-09-17T13:59:31;13.13;;;2.50;;
46290;SDS011;32023;44.444;26.006;2022-09-17T14:09:51;6.60;;;2.35;;
46290;SDS011;32023;44.444;26.006;2022-09-17T14:23:34;4.70;;;1.40;;
46290;SDS011;32023;44.444;26.006;2022-09-17T14:29:26;7.72;;;2.25;;
46290;SDS011;32023;44.444;26.006;2022-09-17T14:32:08;5.22;;;1.50;;
46290;SDS011;32023;44.444;26.006;2022-09-17T14:34:40;3.70;;;1.40;;
46290;SDS011;32023;44.444;26.006;2022-09-17T14:37:09;8.45;;;1.88;;
46290;SDS011;32023;44.444;26.006;2022-09-17T14:39:41;6.32;;;2.20;;
46290;SDS011;32023;44.444;26.006;2022-09-17T14:42:12;6.68;;;2.05;;
46290;SDS011;32023;44.444;26.006;2022-09-17T14:44:50;3.85;;;2.08;;
46290;SDS011;32023;44.444;26.006;2022-09-17T14:47:27;6.97;;;3.05;;
46290;SDS011;32023;44.444;26.006;2022-09-17T14:49:54;11.90;;;2.70;;
46290;SDS011;32023;44.444;26.006;2022-09-17T14:52:41;11.93;;;3.42;;
46290;SDS011;32023;44.444;26.006;2022-09-17T14:55:32;8.43;;;3.08;;
46290;SDS011;32023;44.444;26.006;2022-09-17T14:58:18;8.90;;;2.60;;
46290;SDS011;32023;44.444;26.006;2022-09-17T15:00:57;6.10;;;2.15;;
46290;SDS011;32023;44.444;26.006;2022-09-17T15:03:24;6.47;;;1.70;;
46290;SDS011;32023;44.444;26.006;2022-09-17T15:05:50;6.65;;;2.53;;
46290;SDS011;32023;44.444;26.006;2022-09-17T15:08:22;8.82;;;2.72;;
46290;SDS011;32023;44.444;26.006;2022-09-17T15:10:54;7.45;;;2.55;;
46290;SDS011;32023;44.444;26.006;2022-09-17T15:13:49;6.53;;;2.25;;
46290;SDS011;32023;44.444;26.006;2022-09-17T15:16:26;14.32;;;8.82;;
46290;SDS011;32023;44.444;26.006;2022-09-17T15:18:58;7.68;;;2.55;;
46290;SDS011;32023;44.444;26.006;2022-09-17T15:24:02;9.45;;;2.45;;
46290;SDS011;32023;44.444;26.006;2022-09-17T15:26:45;12.25;;;2.65;;
46290;SDS011;32023;44.444;26.006;2022-09-17T15:29:16;9.43;;;2.22;;
46290;SDS011;32023;44.444;26.006;2022-09-17T15:31:50;9.60;;;2.58;;
46290;SDS011;32023;44.444;26.006;2022-09-17T15:34:18;7.45;;;2.67;;
46290;SDS011;32023;44.444;26.006;2022-09-17T15:37:04;6.15;;;2.85;;
46290;SDS011;32023;44.444;26.006;2022-09-17T15:39:45;9.48;;;2.15;;
46290;SDS011;32023;44.444;26.006;2022-09-17T15:45:07;10.15;;;3.30;;
46290;SDS011;32023;44.444;26.006;2022-09-17T15:50:24;7.47;;;2.45;;
46290;SDS011;32023;44.444;26.006;2022-09-17T15:53:19;7.97;;;2.38;;
46290;SDS011;32023;44.444;26.006;2022-09-17T16:04:22;7.75;;;2.40;;
46290;SDS011;32023;44.444;26.006;2022-09-17T16:06:53;4.07;;;1.85;;
46290;SDS011;32023;44.444;26.006;2022-09-17T16:12:18;5.55;;;2.33;;
46290;SDS011;32023;44.444;26.006;2022-09-17T16:14:53;6.15;;;2.60;;
46290;SDS011;32023;44.444;26.006;2022-09-17T16:17:32;3.97;;;1.90;;
46290;SDS011;32023;44.444;26.006;2022-09-17T16:22:39;7.07;;;2.38;;
46290;SDS011;32023;44.444;26.006;2022-09-17T16:28:18;10.45;;;2.25;;
46290;SDS011;32023;44.444;26.006;2022-09-17T16:30:46;6.75;;;2.13;;
46290;SDS011;32023;44.444;26.006;2022-09-17T16:33:14;11.75;;;5.80;;
46290;SDS011;32023;44.444;26.006;2022-09-17T16:35:42;11.05;;;4.68;;
46290;SDS011;32023;44.444;26.006;2022-09-17T16:38:09;10.60;;;3.90;;
46290;SDS011;32023;44.444;26.006;2022-09-17T16:40:41;13.80;;;3.88;;
46290;SDS011;32023;44.444;26.006;2022-09-17T16:43:16;7.50;;;3.67;;
46290;SDS011;32023;44.444;26.006;2022-09-17T16:45:43;9.38;;;4.00;;
46290;SDS011;32023;44.444;26.006;2022-09-17T16:48:22;9.10;;;3.38;;
46290;SDS011;32023;44.444;26.006;2022-09-17T16:50:50;10.60;;;3.28;;
46290;SDS011;32023;44.444;26.006;2022-09-17T16:53:17;8.30;;;2.50;;
46290;SDS011;32023;44.444;26.006;2022-09-17T16:55:47;8.60;;;2.38;;
46290;SDS011;32023;44.444;26.006;2022-09-17T16:58:14;12.00;;;2.85;;
46290;SDS011;32023;44.444;26.006;2022-09-17T17:00:41;8.43;;;2.55;;
46290;SDS011;32023;44.444;26.006;2022-09-17T17:03:08;14.20;;;3.15;;
46290;SDS011;32023;44.444;26.006;2022-09-17T17:05:37;11.45;;;3.50;;
46290;SDS011;32023;44.444;26.006;2022-09-17T17:08:05;5.65;;;2.70;;
46290;SDS011;32023;44.444;26.006;2022-09-17T17:10:38;6.95;;;2.50;;
46290;SDS011;32023;44.444;26.006;2022-09-17T17:13:04;9.23;;;2.92;;
46290;SDS011;32023;44.444;26.006;2022-09-17T17:15:30;8.95;;;3.03;;
46290;SDS011;32023;44.444;26.006;2022-09-17T17:18:03;8.00;;;3.63;;
46290;SDS011;32023;44.444;26.006;2022-09-17T17:20:29;11.97;;;4.13;;
46290;SDS011;32023;44.444;26.006;2022-09-17T17:22:59;5.50;;;2.63;;
46290;SDS011;32023;44.444;26.006;2022-09-17T17:25:25;8.55;;;3.47;;
46290;SDS011;32023;44.444;26.006;2022-09-17T17:27:55;9.30;;;2.88;;
46290;SDS011;32023;44.444;26.006;2022-09-17T17:30:23;13.27;;;2.78;;
46290;SDS011;32023;44.444;26.006;2022-09-17T17:32:50;7.53;;;2.67;;
46290;SDS011;32023;44.444;26.006;2022-09-17T17:35:17;11.05;;;2.80;;
46290;SDS011;32023;44.444;26.006;2022-09-17T17:37:44;9.15;;;3.28;;
46290;SDS011;32023;44.444;26.006;2022-09-17T17:40:14;6.45;;;3.17;;
46290;SDS011;32023;44.444;26.006;2022-09-17T17:42:40;11.63;;;3.38;;
46290;SDS011;32023;44.444;26.006;2022-09-17T17:45:08;8.18;;;2.97;;
46290;SDS011;32023;44.444;26.006;2022-09-17T17:47:35;7.82;;;3.13;;
46290;SDS011;32023;44.444;26.006;2022-09-17T17:50:02;16.40;;;3.08;;
46290;SDS011;32023;44.444;26.006;2022-09-17T17:52:29;7.90;;;3.17;;
46290;SDS011;32023;44.444;26.006;2022-09-17T17:54:55;9.73;;;2.90;;
46290;SDS011;32023;44.444;26.006;2022-09-17T17:57:29;8.50;;;3.10;;
46290;SDS011;32023;44.444;26.006;2022-09-17T18:02:26;9.25;;;3.35;;
46290;SDS011;32023;44.444;26.006;2022-09-17T18:04:52;9.80;;;3.33;;
46290;SDS011;32023;44.444;26.006;2022-09-17T18:07:19;7.93;;;3.50;;
46290;SDS011;32023;44.444;26.006;2022-09-17T18:09:48;8.57;;;3.97;;
46290;SDS011;32023;44.444;26.006;2022-09-17T18:12:14;7.65;;;3.53;;
46290;SDS011;32023;44.444;26.006;2022-09-17T18:14:40;10.18;;;3.35;;
46290;SDS011;32023;44.444;26.006;2022-09-17T18:17:07;14.25;;;4.90;;
46290;SDS011;32023;44.444;26.006;2022-09-17T18:19:33;16.67;;;5.63;;
46290;SDS011;32023;44.444;26.006;2022-09-17T18:22:00;14.65;;;5.20;;
46290;SDS011;32023;44.444;26.006;2022-09-17T18:24:34;12.18;;;4.35;;
46290;SDS011;32023;44.444;26.006;2022-09-17T18:27:01;11.85;;;4.45;;
46290;SDS011;32023;44.444;26.006;2022-09-17T18:29:27;11.35;;;4.80;;
46290;SDS011;32023;44.444;26.006;2022-09-17T18:31:54;13.90;;;4.95;;
46290;SDS011;32023;44.444;26.006;2022-09-17T18:34:23;10.18;;;4.65;;
46290;SDS011;32023;44.444;26.006;2022-09-17T18:36:52;13.00;;;5.07;;
46290;SDS011;32023;44.444;26.006;2022-09-17T18:42:17;11.77;;;6.05;;
46290;SDS011;32023;44.444;26.006;2022-09-17T18:44:46;11.18;;;5.35;;
46290;SDS011;32023;44.444;26.006;2022-09-17T18:51:19;13.40;;;6.82;;
46290;SDS011;32023;44.444;26.006;2022-09-17T18:54:17;16.15;;;6.60;;
46290;SDS011;32023;44.444;26.006;2022-09-17T18:56:44;15.90;;;6.50;;
46290;SDS011;32023;44.444;26.006;2022-09-17T18:59:13;13.25;;;5.95;;
46290;SDS011;32023;44.444;26.006;2022-09-17T19:01:42;17.60;;;5.75;;
46290;SDS011;32023;44.444;26.006;2022-09-17T19:04:12;17.05;;;5.78;;
46290;SDS011;32023;44.444;26.006;2022-09-17T19:06:38;13.95;;;5.40;;
46290;SDS011;32023;44.444;26.006;2022-09-17T19:09:09;21.15;;;6.70;;
46290;SDS011;32023;44.444;26.006;2022-09-17T19:11:36;10.63;;;5.75;;
46290;SDS011;32023;44.444;26.006;2022-09-17T19:14:02;16.02;;;6.38;;
46290;SDS011;32023;44.444;26.006;2022-09-17T19:16:29;18.42;;;5.95;;
46290;SDS011;32023;44.444;26.006;2022-09-17T19:18:55;14.88;;;6.65;;
46290;SDS011;32023;44.444;26.006;2022-09-17T19:21:24;11.82;;;5.78;;
46290;SDS011;32023;44.444;26.006;2022-09-17T19:23:51;13.75;;;5.95;;
46290;SDS011;32023;44.444;26.006;2022-09-17T19:26:34;16.33;;;6.30;;
46290;SDS011;32023;44.444;26.006;2022-09-17T19:29:01;15.07;;;6.40;;
46290;SDS011;32023;44.444;26.006;2022-09-17T19:31:28;14.30;;;6.55;;
46290;SDS011;32023;44.444;26.006;2022-09-17T19:33:55;11.85;;;6.22;;